createdAt,value
2023-04-18T00:02:07.391Z,76.36
2023-04-18T00:04:34.234Z,75.22
2023-04-18T00:07:00.972Z,73.64
2023-04-18T00:09:27.678Z,73.45
2023-04-18T00:11:54.264Z,73.14
2023-04-18T00:14:20.728Z,72.23
2023-04-18T00:16:47.324Z,71.85
2023-04-18T00:19:14.311Z,71.75
2023-04-18T00:21:44.708Z,72.57
2023-04-18T00:24:11.665Z,71.20
2023-04-18T00:26:38.132Z,71.12
2023-04-18T00:29:05.174Z,71.07
2023-04-18T00:31:32.554Z,70.17
2023-04-18T00:33:58.998Z,69.20
2023-04-18T00:36:25.995Z,69.68
2023-04-18T00:38:52.500Z,69.61
2023-04-18T00:41:20.292Z,69.53
2023-04-18T00:43:46.729Z,69.33
2023-04-18T00:46:13.290Z,68.48
2023-04-18T00:48:39.972Z,68.89
2023-04-18T00:51:07.630Z,69.42
2023-04-18T00:53:34.302Z,68.95
2023-04-18T00:56:00.742Z,69.16
2023-04-18T00:58:27.562Z,69.02
2023-04-18T01:00:54.670Z,68.66
2023-04-18T01:03:22.804Z,68.89
2023-04-18T01:05:49.742Z,68.97
2023-04-18T01:08:18.785Z,68.04
2023-04-18T01:10:45.494Z,67.88
2023-04-18T01:13:17.658Z,67.56
2023-04-18T01:15:49.755Z,66.65
2023-04-18T01:18:17.581Z,66.88
2023-04-18T01:20:48.829Z,66.42
2023-04-18T01:23:17.137Z,66.42
2023-04-18T01:25:44.462Z,66.06
2023-04-18T01:28:12.349Z,66.05
2023-04-18T01:30:38.878Z,66.53
2023-04-18T01:33:06.464Z,65.95
2023-04-18T01:35:33.728Z,65.18
2023-04-18T01:38:01.183Z,65.66
2023-04-18T01:40:27.902Z,65.95
2023-04-18T01:42:54.471Z,65.02
2023-04-18T01:45:22.299Z,65.40
2023-04-18T01:47:48.851Z,64.47
2023-04-18T01:50:15.481Z,65.07
2023-04-18T01:52:41.967Z,65.01
2023-04-18T01:55:08.899Z,64.65
2023-04-18T01:57:38.215Z,64.55
2023-04-18T02:00:06.332Z,64.71
2023-04-18T02:02:33.104Z,64.69
2023-04-18T02:04:59.737Z,64.57
2023-04-18T02:07:26.221Z,64.56
2023-04-18T02:09:52.634Z,64.69
2023-04-18T02:12:19.148Z,65.05
2023-04-18T02:14:45.563Z,65.24
2023-04-18T02:17:11.980Z,65.14
2023-04-18T02:19:38.490Z,65.02
2023-04-18T02:22:04.942Z,64.64
2023-04-18T02:24:31.400Z,64.91
2023-04-18T02:26:58.183Z,64.61
2023-04-18T02:29:24.694Z,64.86
2023-04-18T02:31:51.224Z,65.35
2023-04-18T02:34:17.694Z,65.03
2023-04-18T02:36:44.121Z,65.50
2023-04-18T02:39:10.639Z,65.71
2023-04-18T02:41:38.005Z,65.81
2023-04-18T02:44:04.529Z,65.86
2023-04-18T02:46:31.097Z,65.44
2023-04-18T02:48:57.632Z,65.52
2023-04-18T02:51:24.163Z,65.88
2023-04-18T02:53:54.881Z,65.90
2023-04-18T02:56:21.919Z,65.98
2023-04-18T02:58:49.290Z,66.01
2023-04-18T03:01:17.741Z,66.35
2023-04-18T03:03:44.307Z,66.44
2023-04-18T03:06:10.806Z,66.60
2023-04-18T03:08:37.323Z,66.65
2023-04-18T03:11:03.830Z,66.76
2023-04-18T03:13:30.415Z,66.79
2023-04-18T03:15:56.967Z,67.01
2023-04-18T03:18:23.740Z,66.91
2023-04-18T03:20:50.215Z,67.64
2023-04-18T03:23:16.660Z,67.41
2023-04-18T03:25:43.152Z,67.61
2023-04-18T03:28:09.571Z,67.51
2023-04-18T03:30:36.120Z,68.05
2023-04-18T03:33:02.737Z,68.01
2023-04-18T03:35:29.392Z,68.13
2023-04-18T03:37:56.039Z,68.31
2023-04-18T03:40:22.516Z,68.08
2023-04-18T03:42:48.984Z,68.23
2023-04-18T03:45:16.589Z,68.46
2023-04-18T03:47:43.106Z,68.33
2023-04-18T03:50:09.966Z,68.61
2023-04-18T03:52:36.431Z,68.44
2023-04-18T03:55:03.226Z,68.34
2023-04-18T03:57:29.709Z,67.88
2023-04-18T03:59:56.233Z,68.11
2023-04-18T04:02:22.976Z,67.74
2023-04-18T04:04:49.922Z,68.42
2023-04-18T04:07:16.450Z,68.27
2023-04-18T04:09:42.927Z,68.56
2023-04-18T04:12:09.379Z,68.52
2023-04-18T04:14:35.915Z,68.89
2023-04-18T04:17:02.504Z,68.95
2023-04-18T04:19:28.934Z,69.05
2023-04-18T04:21:55.375Z,68.92
2023-04-18T04:24:22.689Z,68.68
2023-04-18T04:26:50.737Z,68.53
2023-04-18T04:29:17.636Z,68.72
2023-04-18T04:31:44.174Z,68.84
2023-04-18T04:34:10.653Z,68.14
2023-04-18T04:36:37.110Z,68.69
2023-04-18T04:39:04.236Z,69.58
2023-04-18T04:41:31.589Z,69.04
2023-04-18T04:43:59.484Z,68.95
2023-04-18T04:46:29.451Z,69.23
2023-04-18T04:48:56.481Z,69.41
2023-04-18T04:51:23.168Z,69.43
2023-04-18T04:53:49.630Z,68.82
2023-04-18T04:56:16.174Z,69.34
2023-04-18T04:58:42.746Z,68.86
2023-04-18T05:01:09.254Z,69.64
2023-04-18T05:03:36.533Z,70.10
2023-04-18T05:06:03.261Z,69.57
2023-04-18T05:08:29.740Z,70.02
2023-04-18T05:10:56.209Z,70.01
2023-04-18T05:13:22.727Z,70.38
2023-04-18T05:15:49.220Z,70.54
2023-04-18T05:18:15.967Z,70.26
2023-04-18T05:20:42.450Z,70.31
2023-04-18T05:23:08.919Z,70.53
2023-04-18T05:25:35.566Z,70.89
2023-04-18T05:28:04.534Z,71.03
2023-04-18T05:30:31.043Z,70.89
2023-04-18T05:32:57.589Z,71.46
2023-04-18T05:35:24.034Z,71.08
2023-04-18T05:37:51.372Z,71.23
2023-04-18T05:40:17.808Z,70.91
2023-04-18T05:42:44.267Z,71.31
2023-04-18T05:45:11.321Z,71.33
2023-04-18T05:47:37.827Z,71.27
2023-04-18T05:50:06.668Z,72.16
2023-04-18T05:52:33.169Z,72.06
2023-04-18T05:54:59.667Z,71.85
2023-04-18T05:57:26.138Z,72.48
2023-04-18T05:59:52.642Z,71.95
2023-04-18T06:02:19.223Z,72.34
2023-04-18T06:04:46.250Z,71.76
2023-04-18T06:07:12.808Z,72.82
2023-04-18T06:09:39.254Z,72.30
2023-04-18T06:12:06.146Z,72.11
2023-04-18T06:14:32.735Z,71.99
2023-04-18T06:16:59.571Z,72.15
2023-04-18T06:19:26.143Z,72.44
2023-04-18T06:21:53.310Z,72.81
2023-04-18T06:24:19.892Z,72.50
2023-04-18T06:26:46.608Z,72.25
2023-04-18T06:29:13.241Z,72.12
2023-04-18T06:31:39.876Z,71.82
2023-04-18T06:34:06.421Z,72.34
2023-04-18T06:36:33.029Z,72.48
2023-04-18T06:38:59.526Z,72.37
2023-04-18T06:41:26.020Z,71.90
2023-04-18T06:46:26.238Z,71.97
2023-04-18T06:48:52.890Z,72.15
2023-04-18T06:51:19.345Z,71.75
2023-04-18T06:53:46.078Z,71.52
2023-04-18T06:56:12.643Z,71.26
2023-04-18T06:58:39.281Z,71.62
2023-04-18T07:01:05.872Z,71.30
2023-04-18T07:03:32.390Z,72.22
2023-04-18T07:05:59.014Z,71.80
2023-04-18T07:08:25.548Z,71.10
2023-04-18T07:10:52.043Z,71.66
2023-04-18T07:13:18.482Z,71.59
2023-04-18T07:15:45.056Z,72.05
2023-04-18T07:18:11.900Z,71.90
2023-04-18T07:20:40.271Z,72.66
2023-04-18T07:23:07.518Z,71.60
2023-04-18T07:25:34.013Z,71.40
2023-04-18T07:28:00.534Z,71.45
2023-04-18T07:30:27.206Z,71.78
2023-04-18T07:32:53.768Z,70.71
2023-04-18T07:35:20.455Z,70.83
2023-04-18T07:37:46.983Z,70.32
2023-04-18T07:40:13.832Z,69.21
2023-04-18T07:42:40.339Z,69.04
2023-04-18T07:45:07.399Z,69.76
2023-04-18T07:47:33.981Z,68.47
2023-04-18T07:50:00.670Z,68.63
2023-04-18T07:52:27.272Z,68.61
2023-04-18T07:54:53.750Z,67.96
2023-04-18T07:57:20.416Z,67.84
2023-04-18T07:59:46.906Z,67.20
2023-04-18T08:02:13.421Z,67.50
2023-04-18T08:04:40.126Z,66.61
2023-04-18T08:07:06.785Z,64.91
2023-04-18T08:09:34.233Z,65.38
2023-04-18T08:12:00.816Z,64.80
2023-04-18T08:14:27.282Z,63.90
2023-04-18T08:16:53.956Z,63.25
2023-04-18T08:19:20.416Z,64.29
2023-04-18T08:21:46.909Z,65.36
2023-04-18T08:24:13.384Z,65.10
2023-04-18T08:26:39.917Z,65.20
2023-04-18T08:29:06.472Z,64.59
2023-04-18T08:31:32.972Z,64.07
2023-04-18T08:33:59.586Z,63.97
2023-04-18T08:36:26.753Z,64.35
2023-04-18T08:38:53.311Z,64.21
2023-04-18T08:41:25.053Z,63.82
2023-04-18T08:43:51.649Z,65.12
2023-04-18T08:46:19.025Z,63.61
2023-04-18T08:48:49.260Z,63.84
2023-04-18T08:51:15.803Z,64.08
2023-04-18T08:53:45.092Z,63.43
2023-04-18T08:56:14.662Z,63.75
2023-04-18T08:58:41.207Z,63.96
2023-04-18T09:01:07.856Z,64.29
2023-04-18T09:03:41.808Z,63.52
2023-04-18T09:06:19.360Z,61.29
2023-04-18T09:09:02.801Z,62.50
2023-04-18T09:11:31.725Z,61.56
2023-04-18T09:14:02.433Z,59.87
2023-04-18T09:16:44.536Z,59.55
2023-04-18T09:19:18.587Z,60.38
2023-04-18T09:21:48.910Z,60.70
2023-04-18T09:24:17.566Z,61.68
2023-04-18T09:26:44.078Z,60.81
2023-04-18T09:29:10.641Z,60.03
2023-04-18T09:31:54.979Z,60.71
2023-04-18T09:34:26.278Z,58.49
2023-04-18T09:37:25.970Z,58.86
2023-04-18T09:39:52.639Z,58.85
2023-04-18T09:42:19.381Z,56.68
2023-04-18T09:45:07.046Z,58.95
2023-04-18T09:47:35.367Z,57.61
2023-04-18T09:50:07.162Z,58.57
2023-04-18T09:52:41.319Z,59.06
2023-04-18T09:55:09.615Z,58.64
2023-04-18T09:57:40.601Z,59.20
2023-04-18T10:00:14.116Z,58.90
2023-04-18T10:02:48.934Z,59.94
2023-04-18T10:05:18.267Z,59.61
2023-04-18T10:07:48.929Z,58.97
2023-04-18T10:10:16.939Z,59.70
2023-04-18T10:12:45.950Z,58.97
2023-04-18T10:15:12.540Z,60.81
2023-04-18T10:17:52.679Z,59.70
2023-04-18T10:20:31.432Z,57.94
2023-04-18T10:22:59.506Z,57.60
2023-04-18T10:25:34.862Z,59.33
2023-04-18T10:28:02.842Z,59.38
2023-04-18T10:30:38.986Z,57.18
2023-04-18T10:33:32.307Z,58.34
2023-04-18T10:36:06.412Z,57.69
2023-04-18T10:38:34.109Z,58.03
2023-04-18T10:41:23.601Z,58.23
2023-04-18T10:44:09.059Z,57.98
2023-04-18T10:46:41.227Z,57.63
2023-04-18T10:49:18.111Z,59.01
2023-04-18T10:51:45.890Z,57.38
2023-04-18T10:54:41.814Z,57.69
2023-04-18T10:57:09.973Z,57.76
2023-04-18T10:59:42.167Z,57.04
2023-04-18T11:02:30.611Z,57.65
2023-04-18T11:04:59.642Z,57.67
2023-04-18T11:07:35.268Z,56.26
2023-04-18T11:10:02.236Z,58.10
2023-04-18T11:12:32.044Z,57.14
2023-04-18T11:15:01.300Z,55.59
2023-04-18T11:17:32.649Z,57.97
2023-04-18T11:20:09.240Z,57.91
2023-04-18T11:22:53.202Z,56.73
2023-04-18T11:25:23.859Z,57.03
2023-04-18T11:27:51.742Z,57.04
2023-04-18T11:30:18.897Z,56.58
2023-04-18T11:32:45.854Z,56.20
2023-04-18T11:35:14.376Z,56.28
2023-04-18T11:37:41.579Z,56.51
2023-04-18T11:40:09.927Z,56.16
2023-04-18T11:42:38.899Z,54.96
2023-04-18T11:45:15.799Z,55.33
2023-04-18T11:47:43.556Z,55.28
2023-04-18T11:50:12.061Z,55.77
2023-04-18T11:52:41.135Z,56.48
2023-04-18T11:55:13.706Z,55.07
2023-04-18T11:57:41.370Z,56.27
2023-04-18T12:00:09.469Z,56.49
2023-04-18T12:02:40.657Z,57.07
2023-04-18T12:05:08.030Z,56.90
2023-04-18T12:07:39.955Z,57.88
2023-04-18T12:10:23.935Z,57.07
2023-04-18T12:12:58.951Z,56.48
2023-04-18T12:15:28.204Z,55.92
2023-04-18T12:18:04.034Z,57.09
2023-04-18T12:20:51.492Z,57.20
2023-04-18T12:23:40.384Z,57.47
2023-04-18T12:26:11.532Z,58.22
2023-04-18T12:28:38.267Z,58.29
2023-04-18T12:31:07.877Z,57.83
2023-04-18T12:33:36.746Z,57.93
2023-04-18T12:36:05.447Z,59.88
2023-04-18T12:38:32.085Z,59.44
2023-04-18T12:40:58.652Z,57.77
2023-04-18T12:43:25.772Z,58.91
2023-04-18T12:45:52.374Z,58.48
2023-04-18T12:48:18.863Z,59.64
2023-04-18T12:50:45.322Z,58.45
2023-04-18T12:53:11.855Z,57.85
2023-04-18T12:55:38.401Z,58.43
2023-04-18T12:58:04.859Z,57.67
2023-04-18T13:00:32.900Z,57.03
2023-04-18T13:02:59.870Z,55.81
2023-04-18T13:05:31.662Z,56.10
2023-04-18T13:08:15.436Z,56.22
2023-04-18T13:10:44.024Z,55.90
2023-04-18T13:13:10.714Z,55.79
2023-04-18T13:15:37.464Z,55.20
2023-04-18T13:18:06.368Z,57.36
2023-04-18T13:20:34.056Z,56.79
2023-04-18T13:23:02.469Z,56.82
2023-04-18T13:25:29.113Z,56.65
2023-04-18T13:27:57.440Z,56.76
2023-04-18T13:30:24.016Z,57.54
2023-04-18T13:32:50.759Z,58.84
2023-04-18T13:35:17.424Z,58.96
2023-04-18T13:37:44.003Z,58.63
2023-04-18T13:40:11.067Z,59.39
2023-04-18T13:42:38.587Z,58.88
2023-04-18T13:45:05.766Z,59.46
2023-04-18T13:47:32.500Z,59.72
2023-04-18T13:49:59.303Z,60.98
2023-04-18T13:52:26.191Z,60.08
2023-04-18T13:54:53.013Z,60.40
2023-04-18T13:57:19.667Z,60.42
2023-04-18T13:59:46.271Z,60.09
2023-04-18T14:02:12.833Z,60.57
2023-04-18T14:04:39.593Z,60.62
2023-04-18T14:07:06.402Z,60.61
2023-04-18T14:09:33.533Z,59.36
2023-04-18T14:11:59.985Z,60.75
2023-04-18T14:14:26.527Z,59.57
2023-04-18T14:16:53.932Z,59.96
2023-04-18T14:19:20.656Z,60.30
2023-04-18T14:21:48.007Z,60.37
2023-04-18T14:24:14.561Z,59.72
2023-04-18T14:26:41.859Z,58.37
2023-04-18T14:29:08.402Z,57.01
2023-04-18T14:31:35.187Z,55.80
2023-04-18T14:34:01.731Z,55.60
2023-04-18T14:36:28.286Z,55.99
2023-04-18T14:38:55.136Z,56.29
2023-04-18T14:41:21.749Z,55.63
2023-04-18T14:43:48.698Z,55.64
2023-04-18T14:46:18.876Z,54.87
2023-04-18T14:48:46.822Z,54.99
2023-04-18T14:51:15.043Z,55.28
2023-04-18T14:53:41.585Z,56.62
2023-04-18T14:56:08.050Z,54.75
2023-04-18T14:58:34.548Z,54.46
2023-04-18T15:01:01.103Z,54.90
2023-04-18T15:03:27.700Z,54.06
2023-04-18T15:05:55.064Z,54.67
2023-04-18T15:08:22.018Z,54.34
2023-04-18T15:10:48.649Z,54.67
2023-04-18T15:13:15.798Z,53.89
2023-04-18T15:15:42.454Z,52.92
2023-04-18T15:18:10.338Z,52.47
2023-04-18T15:20:37.312Z,54.47
2023-04-18T15:23:03.886Z,55.02
2023-04-18T15:25:30.949Z,54.80
2023-04-18T15:27:58.366Z,54.63
2023-04-18T15:30:25.525Z,53.33
2023-04-18T15:32:52.332Z,52.54
2023-04-18T15:35:18.970Z,53.45
2023-04-18T15:37:45.443Z,54.03
2023-04-18T15:40:16.197Z,54.08
2023-04-18T15:42:43.716Z,55.05
2023-04-18T15:45:11.660Z,53.49
2023-04-18T15:47:38.838Z,52.76
2023-04-18T15:50:06.017Z,51.27
2023-04-18T15:52:32.505Z,49.68
2023-04-18T15:54:59.064Z,49.75
2023-04-18T15:57:25.575Z,49.45
2023-04-18T15:59:52.148Z,49.40
2023-04-18T16:02:18.678Z,48.23
2023-04-18T16:04:45.593Z,47.81
2023-04-18T16:07:12.283Z,46.29
2023-04-18T16:09:38.736Z,46.95
2023-04-18T16:12:07.162Z,49.10
2023-04-18T16:14:33.713Z,49.30
2023-04-18T16:17:00.496Z,48.82
2023-04-18T16:19:27.041Z,49.29
2023-04-18T16:21:53.503Z,50.01
2023-04-18T16:24:19.943Z,50.12
2023-04-18T16:26:46.526Z,49.46
2023-04-18T16:29:12.999Z,50.69
2023-04-18T16:31:39.620Z,49.65
2023-04-18T16:34:06.203Z,49.55
2023-04-18T16:36:34.705Z,50.58
2023-04-18T16:39:01.197Z,50.85
2023-04-18T16:41:27.719Z,50.85
2023-04-18T16:43:54.200Z,50.95
2023-04-18T16:46:20.659Z,52.35
2023-04-18T16:48:47.256Z,52.85
2023-04-18T16:51:13.780Z,52.63
2023-04-18T16:53:40.320Z,53.61
2023-04-18T16:56:07.940Z,54.26
2023-04-18T16:58:34.494Z,52.94
2023-04-18T17:01:04.210Z,51.52
2023-04-18T17:03:30.903Z,50.01
2023-04-18T17:05:57.447Z,51.71
2023-04-18T17:08:25.793Z,51.21
2023-04-18T17:10:52.864Z,51.73
2023-04-18T17:13:19.478Z,51.42
2023-04-18T17:15:46.300Z,52.68
2023-04-18T17:18:12.821Z,53.35
2023-04-18T17:20:39.360Z,53.25
2023-04-18T17:23:05.908Z,53.42
2023-04-18T17:25:32.435Z,53.69
2023-04-18T17:28:02.013Z,52.94
2023-04-18T17:30:29.271Z,54.20
2023-04-18T17:32:55.951Z,53.63
2023-04-18T17:35:22.900Z,54.13
2023-04-18T17:37:50.134Z,54.64
2023-04-18T17:40:16.599Z,54.51
2023-04-18T17:42:43.248Z,55.03
2023-04-18T17:45:10.090Z,53.99
2023-04-18T17:47:36.860Z,55.28
2023-04-18T17:50:04.156Z,55.18
2023-04-18T17:52:31.133Z,55.26
2023-04-18T17:54:59.225Z,55.06
2023-04-18T17:57:26.663Z,55.21
2023-04-18T17:59:53.402Z,53.85
2023-04-18T18:02:20.285Z,54.81
2023-04-18T18:04:47.174Z,54.17
2023-04-18T18:07:13.760Z,54.08
2023-04-18T18:09:42.071Z,54.37
2023-04-18T18:12:10.004Z,55.43
2023-04-18T18:14:36.582Z,55.84
2023-04-18T18:17:03.439Z,56.71
2023-04-18T18:19:29.953Z,57.14
2023-04-18T18:21:56.414Z,57.41
2023-04-18T18:24:25.108Z,57.75
2023-04-18T18:26:51.848Z,58.64
2023-04-18T18:29:19.285Z,59.51
2023-04-18T18:31:45.955Z,59.93
2023-04-18T18:34:12.520Z,59.55
2023-04-18T18:36:40.143Z,60.94
2023-04-18T18:39:06.959Z,61.24
2023-04-18T18:41:33.548Z,61.26
2023-04-18T18:44:00.212Z,61.19
2023-04-18T18:46:27.657Z,61.58
2023-04-18T18:48:54.159Z,61.44
2023-04-18T18:51:20.740Z,62.54
2023-04-18T18:53:47.225Z,62.31
2023-04-18T18:56:13.781Z,62.84
2023-04-18T18:58:40.428Z,63.06
2023-04-18T19:01:07.206Z,63.30
2023-04-18T19:03:34.863Z,63.26
2023-04-18T19:06:03.913Z,63.13
2023-04-18T19:08:30.889Z,63.16
2023-04-18T19:10:57.349Z,63.78
2023-04-18T19:13:24.260Z,63.95
2023-04-18T19:15:51.539Z,63.75
2023-04-18T19:18:19.970Z,64.69
2023-04-18T19:20:47.089Z,63.79
2023-04-18T19:23:13.647Z,63.78
2023-04-18T19:25:40.194Z,64.77
2023-04-18T19:28:06.776Z,64.66
2023-04-18T19:30:33.296Z,64.80
2023-04-18T19:32:59.977Z,65.24
2023-04-18T19:35:26.533Z,64.93
2023-04-18T19:37:55.881Z,65.31
2023-04-18T19:40:23.668Z,65.06
2023-04-18T19:42:50.165Z,64.80
2023-04-18T19:45:16.670Z,64.53
2023-04-18T19:47:44.338Z,64.32
2023-04-18T19:50:11.453Z,65.17
2023-04-18T19:52:38.022Z,65.02
2023-04-18T19:55:04.843Z,65.55
2023-04-18T19:57:31.413Z,65.69
2023-04-18T19:59:57.946Z,65.37
2023-04-18T20:02:24.542Z,64.80
2023-04-18T20:04:51.371Z,65.39
2023-04-18T20:07:17.999Z,65.05
2023-04-18T20:09:44.455Z,65.35
2023-04-18T20:12:11.045Z,65.55
2023-04-18T20:14:37.536Z,65.06
2023-04-18T20:17:04.046Z,65.22
2023-04-18T20:19:30.736Z,65.18
2023-04-18T20:21:57.275Z,65.91
2023-04-18T20:24:23.852Z,64.98
2023-04-18T20:26:51.377Z,65.63
2023-04-18T20:29:17.862Z,65.39
2023-04-18T20:31:44.353Z,65.56
2023-04-18T20:34:11.002Z,66.09
2023-04-18T20:36:41.476Z,65.74
2023-04-18T20:39:11.865Z,65.73
2023-04-18T20:41:46.490Z,66.05
2023-04-18T20:44:13.761Z,65.94
2023-04-18T20:46:43.080Z,65.92
2023-04-18T20:49:09.951Z,66.28
2023-04-18T20:51:37.125Z,66.52
2023-04-18T20:54:04.598Z,66.43
2023-04-18T20:56:31.977Z,66.69
2023-04-18T20:58:58.419Z,66.39
2023-04-18T21:01:25.091Z,66.29
2023-04-18T21:03:51.753Z,66.69
2023-04-18T21:06:21.928Z,66.69
2023-04-18T21:08:48.745Z,67.13
2023-04-18T21:11:15.304Z,66.71
2023-04-18T21:13:41.815Z,66.85
2023-04-18T21:16:10.225Z,66.62
2023-04-18T21:18:37.082Z,66.93
2023-04-18T21:21:04.284Z,66.66
2023-04-18T21:23:30.812Z,67.18
2023-04-18T21:25:57.326Z,67.35
2023-04-18T21:28:23.812Z,67.27
2023-04-18T21:30:50.701Z,67.46
2023-04-18T21:33:17.233Z,67.68
2023-04-18T21:35:43.745Z,66.56
2023-04-18T21:38:10.243Z,67.81
2023-04-18T21:40:37.454Z,67.48
2023-04-18T21:43:03.929Z,67.78
2023-04-18T21:45:30.453Z,68.19
2023-04-18T21:47:57.020Z,67.81
2023-04-18T21:50:23.597Z,67.85
2023-04-18T21:52:50.121Z,67.80
2023-04-18T21:55:17.874Z,67.18
2023-04-18T21:57:44.372Z,68.06
2023-04-18T22:00:11.357Z,67.73
2023-04-18T22:02:37.952Z,67.59
2023-04-18T22:05:04.865Z,67.41
2023-04-18T22:07:31.353Z,67.80
2023-04-18T22:09:59.748Z,67.77
2023-04-18T22:12:26.378Z,67.99
2023-04-18T22:14:53.080Z,68.00
2023-04-18T22:17:20.932Z,67.69
2023-04-18T22:19:49.708Z,68.06
2023-04-18T22:22:16.441Z,68.13
2023-04-18T22:24:43.983Z,68.12
2023-04-18T22:27:11.404Z,68.31
2023-04-18T22:29:38.114Z,68.31
2023-04-18T22:32:04.835Z,68.59
2023-04-18T22:34:31.293Z,68.55
2023-04-18T22:36:57.767Z,68.35
2023-04-18T22:39:24.717Z,68.78
2023-04-18T22:41:51.198Z,68.86
2023-04-18T22:44:17.754Z,68.76
2023-04-18T22:46:44.704Z,68.75
2023-04-18T22:49:11.341Z,68.73
2023-04-18T22:51:38.152Z,68.94
2023-04-18T22:54:05.223Z,68.89
2023-04-18T22:56:31.711Z,69.18
2023-04-18T22:58:58.137Z,68.96
2023-04-18T23:01:24.630Z,69.44
2023-04-18T23:03:51.238Z,69.90
2023-04-18T23:06:17.858Z,69.64
2023-04-18T23:08:44.337Z,69.60
2023-04-18T23:11:11.190Z,69.74
2023-04-18T23:13:37.696Z,69.96
2023-04-18T23:16:04.527Z,69.84
2023-04-18T23:18:31.096Z,70.28
2023-04-18T23:20:57.577Z,69.97
2023-04-18T23:23:24.065Z,70.34
2023-04-18T23:25:50.527Z,70.24
2023-04-18T23:28:17.212Z,70.16
2023-04-18T23:30:44.202Z,70.49
2023-04-18T23:33:10.958Z,70.09
2023-04-18T23:35:37.430Z,70.27
2023-04-18T23:38:03.877Z,70.31
2023-04-18T23:40:30.479Z,70.83
2023-04-18T23:42:57.106Z,70.49
2023-04-18T23:45:24.343Z,70.35
2023-04-18T23:47:51.431Z,70.05
2023-04-18T23:50:18.078Z,70.30
2023-04-18T23:52:44.558Z,70.43
2023-04-18T23:55:11.187Z,70.40
2023-04-18T23:57:37.660Z,70.67
